Time;durP1;ratioP1;P1;durP2;ratioP2;P2;SDS_P1;SDS_P2;PMS_P1;PMS_P2;Temp;Humidity;BMP_temperature;BMP_pressure;BME280_temperature;BME280_humidity;BME280_pressure;Samples;Min_cycle;Max_cycle;Signal;HPM_P1;HPM_P2
2022/08/12 12:13:54;;;;;;;;;;;27.20;48.90;;;;;;5169616;27;19927;-79
2022/08/12 12:17:41;;;;;;;;;;;27.70;50.60;;;;;;5040404;27;19925;-77
2022/08/12 12:20:09;;;;;;;;;;;28.80;50.10;;;;;;4921304;28;19956;-77
2022/08/12 12:22:36;;;;;;;;;;;29.40;48.30;;;;;;4982876;28;19929;-77
2022/08/12 12:27:29;;;;;;;;;;;30.50;47.60;;;;;;4982008;27;19924;-78
2022/08/12 12:29:56;;;;;;;;;;;30.90;45.80;;;;;;5090019;28;20693;-77
2022/08/12 12:32:23;;;;;;;;;;;31.40;44.70;;;;;;5086368;28;19929;-77
2022/08/12 12:34:50;;;;;;;;;;;31.80;43.00;;;;;;5117472;27;19997;-77
2022/08/12 12:37:16;;;;;;;;;;;32.20;41.50;;;;;;5093400;28;19963;-76
2022/08/12 12:39:43;;;;;;;;;;;32.50;42.10;;;;;;5097324;27;20394;-76
2022/08/12 12:44:02;;;;;;;;;;;32.80;41.60;;;;;;4970463;27;19935;-76
2022/08/12 12:46:29;;;;;;;;;;;33.30;39.90;;;;;;4900926;28;19925;-74
2022/08/12 12:48:56;;;;;;;;;;;33.50;38.00;;;;;;5033585;27;19924;-76
2022/08/12 12:58:41;;;;;;;8.38;4.40;;;34.50;34.10;;;;;;5219890;27;20388;-75
2022/08/12 13:01:08;;;;;;;6.28;4.40;;;34.70;37.60;;;;;;5025619;27;20039;-75
2022/08/12 13:03:35;;;;;;;7.88;4.10;;;35.00;38.30;;;;;;5142194;27;20046;-75
2022/08/12 13:06:02;;;;;;;5.53;3.83;;;35.10;36.40;;;;;;5149239;27;20048;-75
2022/08/12 13:08:30;;;;;;;5.75;3.90;;;35.20;37.20;;;;;;5003720;27;20058;-75
2022/08/12 13:11:00;;;;;;;5.07;3.90;;;35.40;37.50;;;;;;4934621;27;20043;-75
2022/08/12 13:13:28;;;;;;;4.93;3.90;;;35.50;36.50;;;;;;5124718;27;20043;-73
2022/08/12 13:16:00;;;;;;;5.43;3.90;;;35.60;36.00;;;;;;5132844;27;20051;-74
2022/08/12 13:18:30;;;;;;;5.20;3.95;;;35.80;36.80;;;;;;5171120;27;20446;-74
2022/08/12 13:20:57;;;;;;;5.18;4.22;;;36.00;36.20;;;;;;5145532;27;20504;-75
2022/08/12 13:23:24;;;;;;;6.20;3.83;;;36.10;35.60;;;;;;5135221;27;20054;-75
2022/08/12 13:25:54;;;;;;;5.40;3.70;;;36.20;34.80;;;;;;5138510;27;20284;-75
2022/08/12 13:28:22;;;;;;;6.22;3.75;;;36.30;33.90;;;;;;5151333;27;20044;-74
2022/08/12 13:30:51;;;;;;;16.85;4.75;;;36.40;34.90;;;;;;5141007;27;20142;-74
2022/08/12 13:33:24;;;;;;;6.90;4.10;;;36.40;34.10;;;;;;5132397;27;20193;-74
2022/08/12 13:35:52;;;;;;;6.28;4.22;;;36.50;34.70;;;;;;4976737;27;20152;-74
2022/08/12 13:38:20;;;;;;;8.10;4.30;;;36.50;34.70;;;;;;5129491;27;20052;-75
2022/08/12 13:40:47;;;;;;;12.80;4.45;;;36.60;33.20;;;;;;5151033;27;20051;-74
2022/08/12 13:43:16;;;;;;;6.80;3.90;;;36.70;33.90;;;;;;5132607;27;20051;-74
2022/08/12 13:45:43;;;;;;;5.20;3.70;;;36.70;34.30;;;;;;5134990;27;20055;-74
2022/08/12 13:48:10;;;;;;;6.97;4.47;;;36.90;34.40;;;;;;5105306;27;20146;-75
2022/08/12 13:50:42;;;;;;;9.17;4.40;;;37.00;34.00;;;;;;5125809;27;20059;-75
2022/08/12 13:53:10;;;;;;;4.50;3.88;;;37.10;34.30;;;;;;5121738;27;20060;-75
2022/08/12 13:55:38;;;;;;;6.63;4.55;;;37.30;33.10;;;;;;5149556;27;22240;-75
2022/08/12 13:58:06;;;;;;;6.57;3.85;;;37.30;32.60;;;;;;5146880;27;20061;-74
2022/08/12 14:00:34;;;;;;;5.07;4.20;;;37.20;32.90;;;;;;5147868;27;20134;-74
2022/08/12 14:03:01;;;;;;;6.35;4.30;;;37.20;32.50;;;;;;5146325;27;20563;-74
2022/08/12 14:05:28;;;;;;;20.10;4.63;;;37.30;33.40;;;;;;5147818;27;20523;-74
2022/08/12 14:07:58;;;;;;;4.93;3.80;;;37.30;33.00;;;;;;5144789;27;20101;-74
2022/08/12 14:10:37;;;;;;;7.45;4.20;;;37.50;32.20;;;;;;5133088;27;20059;-74
2022/08/12 14:13:10;;;;;;;7.68;4.20;;;37.50;33.50;;;;;;5115648;27;20130;-74
2022/08/12 14:15:39;;;;;;;5.53;4.20;;;37.50;32.30;;;;;;5132371;27;20140;-74
2022/08/12 14:18:10;;;;;;;6.88;4.93;;;37.60;31.40;;;;;;5132646;27;20059;-75
2022/08/12 14:20:38;;;;;;;5.88;4.57;;;37.60;31.10;;;;;;5128323;27;20043;-75
2022/08/12 14:23:07;;;;;;;11.73;4.63;;;37.70;32.30;;;;;;5133764;27;20052;-74
2022/08/12 14:25:33;;;;;;;5.07;4.03;;;37.70;31.40;;;;;;5134728;27;20044;-76
2022/08/12 14:28:09;;;;;;;5.78;4.93;;;;;;;;;;5131875;27;20058;-75
2022/08/12 14:30:36;;;;;;;17.40;4.90;;;;;;;;;;5133156;27;20109;-76
2022/08/12 14:33:04;;;;;;;6.00;3.90;;;;;;;;;;5132330;27;20052;-76
2022/08/12 14:35:31;;;;;;;5.85;4.45;;;;;;;;;;5134548;27;20052;-76
2022/08/12 14:37:58;;;;;;;5.50;4.65;;;;;;;;;;5133122;27;20501;-76
2022/08/12 14:40:28;;;;;;;6.68;4.35;;;;;;;;;;5133235;27;20051;-76
2022/08/12 14:42:55;;;;;;;6.78;4.40;;;;;;;;;;5133056;27;20052;-77
2022/08/12 14:45:23;;;;;;;6.03;4.22;;;;;;;;;;4847177;28;77090;-76
2022/08/12 14:47:53;;;;;;;6.35;5.15;;;;;;;;;;5026490;27;24025;-76
2022/08/12 14:50:21;;;;;;;5.47;4.27;;;;;;;;;;5112626;27;20052;-76
2022/08/12 14:52:49;;;;;;;6.55;4.30;;;;;;;;;;5100718;28;20127;-75
2022/08/12 15:01:41;;;;;;;5.90;4.60;;;;;;;;;;5098618;28;20521;-76
2022/08/12 15:04:09;;;;;;;7.68;4.70;;;;;;;;;;5099699;28;20083;-76
2022/08/12 15:06:37;;;;;;;6.40;4.50;;;;;;;;;;5077751;27;20051;-76
2022/08/12 15:09:05;;;;;;;6.88;4.57;;;37.80;30.20;;;;;;5122128;27;20050;-68
2022/08/12 15:11:32;;;;;;;5.10;4.30;;;36.90;30.60;;;;;;5038154;27;20037;-68
2022/08/12 15:14:00;;;;;;;5.85;4.10;;;36.70;30.10;;;;;;5130911;27;20158;-68
2022/08/12 15:16:27;;;;;;;5.87;4.20;;;37.00;30.70;;;;;;5131161;27;20062;-68
2022/08/12 15:18:55;;;;;;;5.97;4.57;;;37.00;29.30;;;;;;5132053;27;20434;-68
2022/08/12 15:21:23;;;;;;;6.07;4.20;;;36.50;31.10;;;;;;5131227;27;20057;-68
2022/08/12 15:23:50;;;;;;;5.83;4.67;;;36.70;30.20;;;;;;5130679;27;20508;-68
2022/08/12 15:26:17;;;;;;;5.75;4.32;;;36.70;29.80;;;;;;5011367;27;20046;-68
2022/08/12 15:28:46;;;;;;;5.38;4.85;;;36.50;29.70;;;;;;5061681;27;20481;-68
2022/08/12 15:31:16;;;;;;;5.88;4.47;;;36.50;29.90;;;;;;5098264;27;20063;-68
2022/08/12 15:33:44;;;;;;;6.50;4.85;;;36.60;30.30;;;;;;5045620;27;20055;-68
2022/08/12 15:36:12;;;;;;;5.78;4.68;;;37.00;29.60;;;;;;5096290;28;20550;-66
2022/08/12 15:38:40;;;;;;;5.72;5.07;;;36.90;31.20;;;;;;5091008;28;20411;-66
2022/08/12 15:41:13;;;;;;;5.30;4.60;;;36.60;32.20;;;;;;5087053;28;20060;-66
2022/08/12 15:43:41;;;;;;;5.07;4.57;;;36.60;31.50;;;;;;5087432;28;20505;-66
2022/08/12 15:46:08;;;;;;;7.22;4.65;;;36.70;31.90;;;;;;5087809;28;20064;-66
2022/08/12 15:48:42;;;;;;;6.00;4.70;;;37.20;31.40;;;;;;5086408;28;20481;-66
2022/08/12 15:51:09;;;;;;;47.58;7.55;;;37.40;29.40;;;;;;5088662;28;20056;-66
2022/08/12 15:56:21;;;;;;;5.70;4.53;;;36.60;29.50;;;;;;5108242;27;20060;-66
2022/08/12 15:58:48;;;;;;;6.13;4.60;;;37.10;29.00;;;;;;5075254;28;20076;-66
2022/08/12 16:01:16;;;;;;;6.07;4.40;;;37.30;28.60;;;;;;5069572;28;20834;-65
2022/08/12 16:03:48;;;;;;;6.28;4.30;;;37.50;29.00;;;;;;5087833;28;20123;-66
2022/08/12 16:06:15;;;;;;;6.23;4.07;;;37.40;28.70;;;;;;5113979;27;20111;-66
2022/08/12 16:08:42;;;;;;;5.72;4.88;;;37.30;28.20;;;;;;5091248;28;20076;-66
2022/08/12 16:11:11;;;;;;;5.22;4.40;;;37.50;28.60;;;;;;5090013;28;20055;-66
2022/08/12 16:13:38;;;;;;;6.53;4.53;;;37.50;29.60;;;;;;5084777;28;20052;-66
2022/08/12 16:16:06;;;;;;;8.10;4.43;;;37.20;30.00;;;;;;5080798;28;20396;-65
2022/08/12 16:18:36;;;;;;;4.70;4.28;;;37.20;30.30;;;;;;5090971;27;20052;-66
2022/08/12 16:21:06;;;;;;;4.68;4.00;;;36.50;29.20;;;;;;5052787;27;20139;-66
2022/08/12 16:23:34;;;;;;;4.53;3.70;;;36.30;30.50;;;;;;5059911;27;20953;-66
2022/08/12 16:26:03;;;;;;;6.18;4.15;;;36.10;29.50;;;;;;5109039;27;20040;-66
2022/08/12 16:28:31;;;;;;;7.03;3.85;;;35.70;29.70;;;;;;5098687;28;20139;-66
2022/08/12 16:30:58;;;;;;;6.17;4.00;;;35.80;30.00;;;;;;5100492;27;20095;-65
2022/08/12 16:33:34;;;;;;;5.28;3.92;;;35.60;30.20;;;;;;5097742;28;20056;-65
2022/08/12 16:36:03;;;;;;;4.47;3.97;;;35.10;30.40;;;;;;5098258;28;20758;-65
2022/08/12 16:38:32;;;;;;;5.60;3.77;;;34.70;31.30;;;;;;5081560;28;20478;-65
2022/08/12 16:40:59;;;;;;;5.28;4.15;;;34.40;31.50;;;;;;5124281;27;20045;-65
2022/08/12 16:43:28;;;;;;;5.30;4.07;;;34.60;32.00;;;;;;5111030;28;20056;-65
2022/08/12 16:45:58;;;;;;;5.18;4.18;;;34.60;32.10;;;;;;5101472;28;20043;-65
2022/08/12 16:48:26;;;;;;;6.30;4.30;;;34.20;32.50;;;;;;5109340;28;20113;-65
2022/08/12 16:50:53;;;;;;;6.18;4.28;;;;;;;;;;5087827;28;20139;-65
2022/08/12 16:53:21;;;;;;;5.20;4.30;;;;;;;;;;5104457;28;20052;-65
2022/08/12 16:55:50;;;;;;;9.97;5.07;;;;;;;;;;5110763;28;20044;-65
2022/08/12 16:58:18;;;;;;;5.70;4.03;;;;;;;;;;5109223;28;20274;-68
2022/08/12 17:00:46;;;;;;;7.70;4.50;;;;;;;;;;5105382;28;20816;-68
2022/08/12 17:03:13;;;;;;;10.23;4.63;;;;;;;;;;5106820;28;20048;-68
2022/08/12 17:05:41;;;;;;;6.43;4.30;;;;;;;;;;5105266;28;20040;-67
2022/08/12 17:08:10;;;;;;;7.70;3.95;;;;;;;;;;5110090;28;21677;-68
2022/08/12 17:10:38;;;;;;;5.28;3.95;;;;;;;;;;5103094;28;20059;-68
2022/08/12 17:13:09;;;;;;;7.43;3.90;;;33.00;35.70;;;;;;5048629;27;20052;-65
2022/08/12 17:15:36;;;;;;;6.47;4.23;;;33.20;36.90;;;;;;5041770;27;20112;-68
2022/08/12 17:18:08;;;;;;;5.15;3.70;;;33.00;34.70;;;;;;5139436;27;20360;-69
2022/08/12 17:20:36;;;;;;;5.85;3.75;;;32.90;35.10;;;;;;5125804;27;20055;-69
2022/08/12 17:23:04;;;;;;;5.55;4.05;;;32.80;35.00;;;;;;5124742;27;20122;-69
2022/08/12 17:25:33;;;;;;;5.27;3.93;;;32.70;35.50;;;;;;5120163;27;20070;-68
2022/08/12 17:28:01;;;;;;;7.28;4.00;;;32.60;36.00;;;;;;5126750;27;20305;-68
2022/08/12 17:30:29;;;;;;;8.27;4.15;;;32.60;36.30;;;;;;5119371;27;20056;-68
2022/08/12 17:33:01;;;;;;;5.43;4.07;;;32.50;36.20;;;;;;5127230;27;20054;-69
2022/08/12 17:35:28;;;;;;;6.90;4.10;;;32.40;36.40;;;;;;5126504;27;20056;-68
2022/08/12 17:37:57;;;;;;;7.20;4.45;;;32.20;37.40;;;;;;5108578;27;20282;-69
2022/08/12 17:40:28;;;;;;;6.53;4.13;;;32.10;37.10;;;;;;5127632;27;20058;-68
2022/08/12 17:42:57;;;;;;;4.78;3.78;;;32.00;37.60;;;;;;5120241;27;20051;-68
2022/08/12 17:45:25;;;;;;;6.60;4.35;;;32.00;38.20;;;;;;5122627;27;20054;-69
2022/08/12 17:47:59;;;;;;;5.82;4.00;;;31.80;37.80;;;;;;5121753;27;20044;-68
2022/08/12 17:50:26;;;;;;;4.68;3.70;;;31.80;37.60;;;;;;5111366;27;21448;-68
2022/08/12 17:52:56;;;;;;;10.43;4.13;;;31.80;37.70;;;;;;5117544;27;20064;-69
2022/08/12 17:55:24;;;;;;;6.00;4.40;;;31.70;38.00;;;;;;5136296;27;20827;-68
2022/08/12 17:57:56;;;;;;;5.67;3.87;;;31.60;38.40;;;;;;5138727;27;20044;-68
2022/08/12 18:00:23;;;;;;;6.10;4.22;;;31.50;38.00;;;;;;5131157;27;20047;-68
2022/08/12 18:02:51;;;;;;;6.63;4.15;;;31.40;37.90;;;;;;5131483;27;20980;-68
2022/08/12 18:05:20;;;;;;;5.43;4.00;;;31.20;38.20;;;;;;5140842;27;20051;-68
2022/08/12 18:07:47;;;;;;;8.98;4.47;;;31.00;41.00;;;;;;5142563;27;20052;-68
2022/08/12 18:12:35;;;;;;;7.73;4.20;;;30.90;41.50;;;;;;5136373;27;20052;-68
2022/08/12 18:13:03;;;;;;;11.07;4.35;;;30.70;41.80;;;;;;5131949;27;20043;-68
2022/08/12 18:15:33;;;;;;;13.23;4.72;;;30.50;44.20;;;;;;5134265;27;20082;-68
2022/08/12 18:18:00;;;;;;;12.07;5.18;;;30.20;43.60;;;;;;5132904;27;20071;-68
2022/08/12 18:20:29;;;;;;;7.33;4.63;;;30.00;44.70;;;;;;5134368;27;20139;-68
2022/08/12 18:22:58;;;;;;;10.65;4.35;;;29.70;44.60;;;;;;5133142;27;20333;-68
2022/08/12 18:28:11;;;;;;;8.38;4.28;;;29.30;45.70;;;;;;5131926;27;20040;-68
2022/08/12 18:30:41;;;;;;;7.10;4.00;;;29.00;44.00;;;;;;5132101;27;20067;-68
2022/08/12 18:33:10;;;;;;;7.33;3.97;;;28.90;44.30;;;;;;5107880;27;20090;-68
2022/08/12 18:35:38;;;;;;;5.65;4.10;;;28.60;44.50;;;;;;5132957;27;20250;-68
2022/08/12 18:42:52;;;;;;;108.68;101.07;;;27.80;47.20;;;;;;4923238;28;21523;-64
2022/08/12 18:50:04;;;;;;;7.30;3.72;;;27.50;51.30;;;;;;4986053;27;20807;-70
2022/08/12 18:52:33;;;;;;;7.35;3.88;;;27.30;47.50;;;;;;5051926;28;20106;-70
2022/08/12 18:55:02;;;;;;;6.47;3.60;;;27.20;46.50;;;;;;5036761;28;20064;-69
2022/08/12 18:57:34;;;;;;;5.68;3.67;;;27.00;47.70;;;;;;5085241;28;20060;-69
2022/08/12 19:00:03;;;;;;;7.30;3.70;;;26.80;48.50;;;;;;5083854;28;20049;-69
2022/08/12 19:02:31;;;;;;;6.85;3.70;;;26.50;48.60;;;;;;5067176;28;20057;-69
2022/08/12 19:04:59;;;;;;;7.50;4.07;;;26.30;48.90;;;;;;5051197;28;20061;-70
2022/08/12 19:07:28;;;;;;;6.20;3.80;;;26.00;49.40;;;;;;5073683;28;20551;-69
2022/08/12 19:09:56;;;;;;;9.07;4.18;;;25.80;50.30;;;;;;5078811;28;20053;-69
2022/08/12 19:15:10;;;;;;;32.22;5.75;;;25.40;51.20;;;;;;5071704;28;20100;-69
2022/08/12 19:17:37;;;;;;;9.63;4.05;;;25.20;51.80;;;;;;5069914;28;20048;-70
2022/08/12 19:20:05;;;;;;;6.75;3.22;;;25.00;51.30;;;;;;5072964;28;20053;-70
2022/08/12 19:22:34;;;;;;;6.05;3.50;;;24.90;49.90;;;;;;5077777;28;20503;-69
2022/08/12 19:27:50;;;;;;;6.75;3.65;;;24.70;50.20;;;;;;5003798;27;20139;-69
2022/08/12 19:33:04;;;;;;;7.30;3.35;;;24.50;51.10;;;;;;5065306;28;20045;-69
2022/08/12 19:35:31;;;;;;;6.03;3.53;;;24.30;51.50;;;;;;5061689;28;20136;-69
2022/08/12 19:38:02;;;;;;;7.70;3.67;;;24.20;51.00;;;;;;5073580;28;20067;-73
2022/08/12 19:40:33;;;;;;;5.13;3.55;;;24.00;51.00;;;;;;5003757;27;20072;-74
2022/08/12 19:43:02;;;;;;;7.20;3.63;;;24.00;51.00;;;;;;5062460;28;20077;-74
2022/08/12 19:45:33;;;;;;;6.78;3.45;;;24.00;51.70;;;;;;5052448;28;20089;-73
2022/08/12 19:48:01;;;;;;;6.70;3.65;;;23.90;52.00;;;;;;5054887;28;20146;-73
2022/08/12 19:50:32;;;;;;;7.80;3.67;;;23.80;52.00;;;;;;5057707;28;20089;-71
2022/08/12 19:53:01;;;;;;;8.65;3.40;;;23.60;51.80;;;;;;5059188;28;20065;-71
2022/08/12 19:55:30;;;;;;;5.88;3.80;;;23.60;52.10;;;;;;5055379;28;20176;-71
2022/08/12 19:57:57;;;;;;;6.80;3.40;;;23.50;52.80;;;;;;5071037;28;20052;-71
2022/08/12 20:00:25;;;;;;;4.78;3.15;;;23.40;53.00;;;;;;5059043;28;20053;-71
2022/08/12 20:02:59;;;;;;;7.50;3.60;;;23.40;53.10;;;;;;5053888;28;20045;-70
2022/08/12 20:05:26;;;;;;;7.63;3.55;;;23.30;52.70;;;;;;5047749;28;20050;-70
2022/08/12 20:07:55;;;;;;;5.55;3.50;;;23.10;52.80;;;;;;5045686;28;20048;-70
2022/08/12 20:10:28;;;;;;;7.55;3.13;;;23.10;53.20;;;;;;5045606;28;20536;-70
2022/08/12 20:12:55;;;;;;;6.25;3.25;;;23.00;53.00;;;;;;5006251;28;20057;-71
2022/08/12 20:15:23;;;;;;;5.10;3.13;;;22.80;53.50;;;;;;5012717;28;20498;-71
2022/08/12 20:17:51;;;;;;;6.85;3.60;;;22.80;53.70;;;;;;5054340;28;20054;-72
2022/08/12 20:20:19;;;;;;;6.85;3.15;;;22.70;54.00;;;;;;5056579;28;20060;-73
2022/08/12 20:22:47;;;;;;;5.80;3.00;;;22.60;54.00;;;;;;5044860;28;20050;-73
2022/08/12 20:25:15;;;;;;;6.30;3.42;;;22.50;54.00;;;;;;5054677;28;20056;-73
2022/08/12 20:27:44;;;;;;;6.37;3.20;;;22.50;54.40;;;;;;4995213;28;20768;-73
2022/08/12 20:30:12;;;;;;;6.82;2.95;;;22.40;54.50;;;;;;4956954;28;20514;-73
2022/08/12 20:32:40;;;;;;;7.72;3.42;;;22.30;54.40;;;;;;5049485;28;20045;-73
2022/08/12 20:35:08;;;;;;;5.57;2.97;;;22.20;54.80;;;;;;5044371;28;20052;-73
2022/08/12 20:37:37;;;;;;;6.93;3.03;;;22.10;54.90;;;;;;5058524;28;20050;-72
2022/08/12 20:40:06;;;;;;;5.63;3.00;;;22.10;55.10;;;;;;5065613;28;20088;-73
2022/08/12 20:42:33;;;;;;;6.35;3.00;;;22.00;55.50;;;;;;5039337;28;20053;-73
2022/08/12 20:45:02;;;;;;;5.63;2.90;;;22.00;55.60;;;;;;5058894;28;20224;-73
2022/08/12 20:47:29;;;;;;;5.72;2.80;;;21.90;55.40;;;;;;5049019;28;20096;-73
2022/08/12 20:49:56;;;;;;;4.75;3.03;;;21.90;55.50;;;;;;4981696;27;20073;-73
2022/08/12 20:52:25;;;;;;;4.63;3.03;;;21.90;55.80;;;;;;5095910;28;20453;-75
2022/08/12 20:54:52;;;;;;;4.05;2.65;;;21.80;56.20;;;;;;5056662;28;20141;-73
2022/08/12 20:57:20;;;;;;;5.03;3.20;;;21.70;56.40;;;;;;5066738;28;20128;-73
2022/08/12 20:59:49;;;;;;;5.50;3.30;;;21.70;56.40;;;;;;5053511;28;20513;-73
2022/08/12 21:02:19;;;;;;;6.40;3.50;;;21.60;56.60;;;;;;5058296;28;20057;-73
2022/08/12 21:07:31;;;;;;;5.40;3.10;;;21.50;57.00;;;;;;5049055;28;20053;-73
2022/08/12 21:09:58;;;;;;;5.30;3.42;;;21.40;57.20;;;;;;5050773;28;20064;-73
2022/08/12 21:12:26;;;;;;;8.07;3.17;;;21.30;57.60;;;;;;5061459;28;20077;-73
2022/08/12 21:14:58;;;;;;;5.53;3.30;;;21.10;57.70;;;;;;4990782;28;20090;-74
2022/08/12 21:17:29;;;;;;;5.40;2.90;;;21.10;58.20;;;;;;5061908;28;20059;-73
2022/08/12 21:19:58;;;;;;;6.10;3.10;;;21.00;58.20;;;;;;5050022;28;20466;-73
2022/08/12 21:22:32;;;;;;;5.38;3.45;;;21.00;58.40;;;;;;5069871;28;20527;-73
2022/08/12 21:24:59;;;;;;;5.00;3.35;;;20.90;58.70;;;;;;5056796;28;20183;-73
2022/08/12 21:27:27;;;;;;;5.75;3.42;;;20.80;59.10;;;;;;5050454;28;20054;-73
2022/08/12 21:29:54;;;;;;;5.23;2.83;;;20.70;59.00;;;;;;5062430;28;20061;-72
2022/08/12 21:32:22;;;;;;;5.57;3.60;;;20.60;59.20;;;;;;5074709;28;20100;-72
2022/08/12 21:34:50;;;;;;;5.57;3.30;;;20.50;59.60;;;;;;5074195;28;21036;-73
2022/08/12 21:37:17;;;;;;;5.63;3.42;;;20.50;60.00;;;;;;5079622;28;20075;-73
2022/08/12 21:39:44;;;;;;;6.03;3.47;;;20.40;60.00;;;;;;5075232;28;20496;-73
2022/08/12 21:42:11;;;;;;;4.63;3.23;;;20.30;60.10;;;;;;5063029;28;20053;-73
2022/08/12 21:44:39;;;;;;;5.10;2.95;;;20.30;60.20;;;;;;5079922;28;20993;-72
2022/08/12 21:47:07;;;;;;;6.60;3.50;;;20.20;60.60;;;;;;5074040;28;20049;-73
2022/08/12 21:49:36;;;;;;;5.43;3.47;;;20.10;60.80;;;;;;5068101;28;20053;-73
2022/08/12 21:52:06;;;;;;;4.50;3.17;;;20.00;60.90;;;;;;5077750;28;20491;-73
2022/08/12 21:54:39;;;;;;;5.57;3.10;;;20.00;61.20;;;;;;5084798;28;20136;-73
2022/08/12 21:57:07;;;;;;;5.13;3.40;;;20.00;61.40;;;;;;5073872;28;20128;-73
2022/08/12 21:59:37;;;;;;;6.57;3.58;;;20.00;61.50;;;;;;5075006;28;20559;-73
2022/08/12 22:06:16;;;;;;;20.33;4.72;;;19.90;61.60;;;;;;4994442;28;20186;-73
2022/08/12 22:07:40;;;;;;;12.07;4.30;;;19.80;62.20;;;;;;5077975;28;20057;-73
2022/08/12 22:10:08;;;;;;;12.52;3.92;;;19.70;62.60;;;;;;5080654;28;20049;-73
2022/08/12 22:12:35;;;;;;;6.13;3.30;;;19.70;62.60;;;;;;5078293;28;20049;-73
2022/08/12 22:15:02;;;;;;;7.18;3.58;;;19.70;62.60;;;;;;5078027;28;20197;-73
2022/08/12 22:17:34;;;;;;;5.68;3.22;;;19.70;63.00;;;;;;5080193;28;20052;-73
2022/08/12 22:20:02;;;;;;;5.50;3.30;;;19.60;63.20;;;;;;5091696;28;20053;-73
2022/08/12 22:22:29;;;;;;;6.40;3.50;;;19.60;63.30;;;;;;5090237;28;20149;-73
2022/08/12 22:24:58;;;;;;;6.28;3.80;;;19.50;63.40;;;;;;5073212;28;20056;-73
2022/08/12 22:27:25;;;;;;;7.57;3.42;;;19.50;63.50;;;;;;5090027;28;20450;-73
2022/08/12 22:32:46;;;;;;;5.20;3.67;;;19.50;63.90;;;;;;5090198;28;20053;-73
2022/08/12 22:38:09;;;;;;;6.90;3.80;;;19.40;64.40;;;;;;5090229;28;20048;-73
2022/08/12 22:40:37;;;;;;;7.30;3.97;;;19.30;64.50;;;;;;5089653;28;20552;-73
2022/08/12 22:48:32;;;;;;;6.13;3.95;;;19.20;64.50;;;;;;5069760;28;20049;-73
2022/08/12 22:50:59;;;;;;;8.43;4.25;;;19.20;64.70;;;;;;5070725;28;20049;-73
2022/08/12 22:53:27;;;;;;;8.20;4.22;;;19.10;64.60;;;;;;5069701;28;20041;-73
2022/08/12 22:55:55;;;;;;;8.57;4.18;;;19.10;64.80;;;;;;5069578;28;20056;-73
2022/08/12 22:58:23;;;;;;;8.37;4.20;;;19.10;64.90;;;;;;5069436;28;20053;-73
2022/08/12 23:00:51;;;;;;;7.88;4.15;;;19.00;65.00;;;;;;5070542;28;20056;-73
2022/08/12 23:03:19;;;;;;;18.35;5.45;;;19.00;65.10;;;;;;5070782;28;20506;-73
2022/08/12 23:05:50;;;;;;;27.20;5.40;;;18.90;65.80;;;;;;5115345;22;20059;-75
2022/08/12 23:08:17;;;;;;;9.88;4.60;;;18.90;65.50;;;;;;5028498;28;20941;-73
2022/08/12 23:10:45;;;;;;;8.00;4.57;;;18.80;65.60;;;;;;5029079;28;20049;-73
2022/08/12 23:15:59;;;;;;;7.05;4.82;;;18.70;65.60;;;;;;5029367;28;20050;-73
2022/08/12 23:18:27;;;;;;;7.07;4.90;;;18.70;65.90;;;;;;5029169;28;20046;-73
2022/08/12 23:20:54;;;;;;;7.25;4.78;;;18.60;66.30;;;;;;5029042;28;20060;-72
2022/08/12 23:23:21;;;;;;;7.40;4.80;;;18.60;66.20;;;;;;5030854;28;20058;-73
2022/08/12 23:25:48;;;;;;;7.78;4.88;;;18.50;66.50;;;;;;5029432;28;20057;-73
2022/08/12 23:31:02;;;;;;;9.38;4.97;;;18.30;66.70;;;;;;5030313;28;20073;-73
2022/08/12 23:33:30;;;;;;;8.32;4.90;;;18.30;66.90;;;;;;5030406;28;20054;-73
2022/08/12 23:35:57;;;;;;;8.20;5.23;;;18.30;66.80;;;;;;5031885;28;20053;-73
2022/08/12 23:38:24;;;;;;;7.78;5.03;;;18.20;66.80;;;;;;5032594;28;20782;-73
2022/08/12 23:40:54;;;;;;;8.50;5.05;;;18.20;66.90;;;;;;5032668;28;20053;-73
2022/08/12 23:43:24;;;;;;;8.43;5.00;;;18.20;67.50;;;;;;5032988;28;20049;-73
2022/08/12 23:45:51;;;;;;;6.82;4.70;;;18.10;67.30;;;;;;5033856;28;20065;-73
2022/08/12 23:48:18;;;;;;;7.80;4.73;;;18.10;67.60;;;;;;5032251;28;20046;-73
2022/08/12 23:50:45;;;;;;;7.97;5.10;;;18.00;67.90;;;;;;5033175;28;20054;-73
2022/08/12 23:53:12;;;;;;;7.40;5.22;;;18.00;68.20;;;;;;5032203;28;20053;-73
2022/08/12 23:55:42;;;;;;;7.13;5.15;;;18.00;68.60;;;;;;5031570;28;20117;-74
2022/08/12 23:58:09;;;;;;;7.05;5.50;;;18.00;69.10;;;;;;5032684;28;20050;-73
